sensor_id;sensor_type;location;lat;lon;timestamp;P1;durP1;ratioP1;P2;durP2;ratioP2
19883;SDS011;10104;50.732;10.174;2023-04-25T00:01:14;14.07;;;8.97;;
19883;SDS011;10104;50.732;10.174;2023-04-25T00:03:36;11.57;;;8.97;;
19883;SDS011;10104;50.732;10.174;2023-04-25T00:05:59;11.63;;;9.13;;
19883;SDS011;10104;50.732;10.174;2023-04-25T00:08:24;12.67;;;9.47;;
19883;SDS011;10104;50.732;10.174;2023-04-25T00:10:46;11.87;;;8.93;;
19883;SDS011;10104;50.732;10.174;2023-04-25T00:13:07;11.07;;;9.17;;
19883;SDS011;10104;50.732;10.174;2023-04-25T00:15:29;10.00;;;8.73;;
19883;SDS011;10104;50.732;10.174;2023-04-25T00:17:51;14.63;;;9.83;;
19883;SDS011;10104;50.732;10.174;2023-04-25T00:20:14;15.83;;;9.87;;
19883;SDS011;10104;50.732;10.174;2023-04-25T00:22:36;13.13;;;9.47;;
19883;SDS011;10104;50.732;10.174;2023-04-25T00:24:58;13.67;;;10.30;;
19883;SDS011;10104;50.732;10.174;2023-04-25T00:27:21;13.63;;;10.17;;
19883;SDS011;10104;50.732;10.174;2023-04-25T00:29:42;14.67;;;10.23;;
19883;SDS011;10104;50.732;10.174;2023-04-25T00:32:04;13.73;;;9.37;;
19883;SDS011;10104;50.732;10.174;2023-04-25T00:34:26;13.60;;;9.97;;
19883;SDS011;10104;50.732;10.174;2023-04-25T00:36:47;11.13;;;9.43;;
19883;SDS011;10104;50.732;10.174;2023-04-25T00:39:09;12.20;;;10.00;;
19883;SDS011;10104;50.732;10.174;2023-04-25T00:41:30;14.63;;;10.63;;
19883;SDS011;10104;50.732;10.174;2023-04-25T00:43:52;13.40;;;10.67;;
19883;SDS011;10104;50.732;10.174;2023-04-25T00:46:15;13.47;;;10.53;;
19883;SDS011;10104;50.732;10.174;2023-04-25T00:48:37;15.50;;;11.43;;
19883;SDS011;10104;50.732;10.174;2023-04-25T00:50:58;13.30;;;10.30;;
19883;SDS011;10104;50.732;10.174;2023-04-25T00:53:21;13.73;;;11.23;;
19883;SDS011;10104;50.732;10.174;2023-04-25T00:55:43;13.93;;;10.67;;
19883;SDS011;10104;50.732;10.174;2023-04-25T00:58:05;13.90;;;11.07;;
19883;SDS011;10104;50.732;10.174;2023-04-25T01:00:26;13.43;;;10.63;;
19883;SDS011;10104;50.732;10.174;2023-04-25T01:02:48;14.63;;;10.33;;
19883;SDS011;10104;50.732;10.174;2023-04-25T01:05:11;18.20;;;11.23;;
19883;SDS011;10104;50.732;10.174;2023-04-25T01:07:33;19.20;;;10.57;;
19883;SDS011;10104;50.732;10.174;2023-04-25T01:09:54;13.10;;;10.10;;
19883;SDS011;10104;50.732;10.174;2023-04-25T01:12:16;13.13;;;9.60;;
19883;SDS011;10104;50.732;10.174;2023-04-25T01:14:38;14.63;;;9.97;;
19883;SDS011;10104;50.732;10.174;2023-04-25T01:16:59;11.80;;;8.77;;
19883;SDS011;10104;50.732;10.174;2023-04-25T01:19:21;11.97;;;9.23;;
19883;SDS011;10104;50.732;10.174;2023-04-25T01:21:42;11.80;;;8.30;;
19883;SDS011;10104;50.732;10.174;2023-04-25T01:24:04;10.53;;;8.23;;
19883;SDS011;10104;50.732;10.174;2023-04-25T01:26:26;10.83;;;8.40;;
19883;SDS011;10104;50.732;10.174;2023-04-25T01:28:48;11.37;;;9.03;;
19883;SDS011;10104;50.732;10.174;2023-04-25T01:31:10;12.37;;;8.50;;
19883;SDS011;10104;50.732;10.174;2023-04-25T01:33:33;10.77;;;7.63;;
19883;SDS011;10104;50.732;10.174;2023-04-25T01:35:54;12.23;;;8.23;;
19883;SDS011;10104;50.732;10.174;2023-04-25T01:38:15;9.50;;;7.57;;
19883;SDS011;10104;50.732;10.174;2023-04-25T01:40:38;12.33;;;8.00;;
19883;SDS011;10104;50.732;10.174;2023-04-25T01:43:01;14.00;;;9.10;;
19883;SDS011;10104;50.732;10.174;2023-04-25T01:45:22;9.37;;;8.13;;
19883;SDS011;10104;50.732;10.174;2023-04-25T01:47:44;8.47;;;6.40;;
19883;SDS011;10104;50.732;10.174;2023-04-25T01:50:10;12.50;;;6.37;;
19883;SDS011;10104;50.732;10.174;2023-04-25T01:52:32;8.23;;;5.93;;
19883;SDS011;10104;50.732;10.174;2023-04-25T01:54:54;9.33;;;5.20;;
19883;SDS011;10104;50.732;10.174;2023-04-25T01:57:17;11.30;;;5.50;;
19883;SDS011;10104;50.732;10.174;2023-04-25T01:59:39;7.07;;;5.00;;
19883;SDS011;10104;50.732;10.174;2023-04-25T02:02:01;9.30;;;4.70;;
19883;SDS011;10104;50.732;10.174;2023-04-25T02:04:24;12.17;;;6.00;;
19883;SDS011;10104;50.732;10.174;2023-04-25T02:06:46;10.97;;;5.60;;
19883;SDS011;10104;50.732;10.174;2023-04-25T02:09:07;7.23;;;5.00;;
19883;SDS011;10104;50.732;10.174;2023-04-25T02:11:29;8.53;;;5.37;;
19883;SDS011;10104;50.732;10.174;2023-04-25T02:13:50;9.57;;;5.93;;
19883;SDS011;10104;50.732;10.174;2023-04-25T02:16:12;8.27;;;5.00;;
19883;SDS011;10104;50.732;10.174;2023-04-25T02:18:35;7.97;;;5.20;;
19883;SDS011;10104;50.732;10.174;2023-04-25T02:20:59;6.17;;;4.60;;
19883;SDS011;10104;50.732;10.174;2023-04-25T02:23:20;8.37;;;4.90;;
19883;SDS011;10104;50.732;10.174;2023-04-25T02:25:42;7.90;;;4.80;;
19883;SDS011;10104;50.732;10.174;2023-04-25T02:28:04;7.87;;;5.17;;
19883;SDS011;10104;50.732;10.174;2023-04-25T02:30:25;10.43;;;5.23;;
19883;SDS011;10104;50.732;10.174;2023-04-25T02:32:46;7.67;;;5.00;;
19883;SDS011;10104;50.732;10.174;2023-04-25T02:35:08;6.00;;;4.80;;
19883;SDS011;10104;50.732;10.174;2023-04-25T02:37:30;9.43;;;5.37;;
19883;SDS011;10104;50.732;10.174;2023-04-25T02:39:52;9.57;;;5.43;;
19883;SDS011;10104;50.732;10.174;2023-04-25T02:42:14;8.60;;;4.60;;
19883;SDS011;10104;50.732;10.174;2023-04-25T02:44:35;9.10;;;4.70;;
19883;SDS011;10104;50.732;10.174;2023-04-25T02:46:57;6.33;;;4.53;;
19883;SDS011;10104;50.732;10.174;2023-04-25T02:49:18;7.13;;;4.37;;
19883;SDS011;10104;50.732;10.174;2023-04-25T02:51:40;10.07;;;5.10;;
19883;SDS011;10104;50.732;10.174;2023-04-25T02:54:01;6.90;;;4.50;;
19883;SDS011;10104;50.732;10.174;2023-04-25T02:56:23;8.10;;;4.57;;
19883;SDS011;10104;50.732;10.174;2023-04-25T02:58:47;9.73;;;4.20;;
19883;SDS011;10104;50.732;10.174;2023-04-25T03:01:08;8.90;;;4.20;;
19883;SDS011;10104;50.732;10.174;2023-04-25T03:03:30;7.17;;;4.00;;
19883;SDS011;10104;50.732;10.174;2023-04-25T03:05:52;5.60;;;3.47;;
19883;SDS011;10104;50.732;10.174;2023-04-25T03:08:13;8.70;;;3.93;;
19883;SDS011;10104;50.732;10.174;2023-04-25T03:10:35;6.23;;;3.57;;
19883;SDS011;10104;50.732;10.174;2023-04-25T03:12:56;8.07;;;3.63;;
19883;SDS011;10104;50.732;10.174;2023-04-25T03:15:18;7.23;;;3.07;;
19883;SDS011;10104;50.732;10.174;2023-04-25T03:17:39;5.80;;;3.63;;
19883;SDS011;10104;50.732;10.174;2023-04-25T03:20:01;7.60;;;3.50;;
19883;SDS011;10104;50.732;10.174;2023-04-25T03:22:25;7.90;;;3.53;;
19883;SDS011;10104;50.732;10.174;2023-04-25T03:24:46;7.37;;;4.07;;
19883;SDS011;10104;50.732;10.174;2023-04-25T03:27:08;8.43;;;4.00;;
19883;SDS011;10104;50.732;10.174;2023-04-25T03:29:29;7.27;;;4.17;;
19883;SDS011;10104;50.732;10.174;2023-04-25T03:31:51;11.43;;;4.30;;
19883;SDS011;10104;50.732;10.174;2023-04-25T03:34:13;8.57;;;4.57;;
19883;SDS011;10104;50.732;10.174;2023-04-25T03:36:35;9.73;;;4.17;;
19883;SDS011;10104;50.732;10.174;2023-04-25T03:38:57;10.97;;;5.07;;
19883;SDS011;10104;50.732;10.174;2023-04-25T03:41:18;6.80;;;4.37;;
19883;SDS011;10104;50.732;10.174;2023-04-25T03:43:40;8.87;;;4.20;;
19883;SDS011;10104;50.732;10.174;2023-04-25T03:46:01;9.27;;;5.00;;
19883;SDS011;10104;50.732;10.174;2023-04-25T03:48:23;8.67;;;5.00;;
19883;SDS011;10104;50.732;10.174;2023-04-25T03:50:47;7.90;;;4.90;;
19883;SDS011;10104;50.732;10.174;2023-04-25T03:53:08;9.03;;;4.97;;
19883;SDS011;10104;50.732;10.174;2023-04-25T03:55:30;10.23;;;5.47;;
19883;SDS011;10104;50.732;10.174;2023-04-25T03:57:52;9.03;;;4.97;;
19883;SDS011;10104;50.732;10.174;2023-04-25T04:00:13;7.60;;;4.70;;
19883;SDS011;10104;50.732;10.174;2023-04-25T04:02:35;10.67;;;5.27;;
19883;SDS011;10104;50.732;10.174;2023-04-25T04:04:58;10.07;;;4.73;;
19883;SDS011;10104;50.732;10.174;2023-04-25T04:07:20;7.90;;;5.03;;
19883;SDS011;10104;50.732;10.174;2023-04-25T04:09:42;9.03;;;4.80;;
19883;SDS011;10104;50.732;10.174;2023-04-25T04:12:03;11.30;;;5.10;;
19883;SDS011;10104;50.732;10.174;2023-04-25T04:14:25;7.53;;;4.33;;
19883;SDS011;10104;50.732;10.174;2023-04-25T04:16:46;8.47;;;4.60;;
19883;SDS011;10104;50.732;10.174;2023-04-25T04:19:08;8.10;;;4.67;;
19883;SDS011;10104;50.732;10.174;2023-04-25T04:21:29;8.33;;;4.80;;
19883;SDS011;10104;50.732;10.174;2023-04-25T04:23:51;6.57;;;4.50;;
19883;SDS011;10104;50.732;10.174;2023-04-25T04:26:12;10.30;;;5.27;;
19883;SDS011;10104;50.732;10.174;2023-04-25T04:28:34;10.47;;;6.03;;
19883;SDS011;10104;50.732;10.174;2023-04-25T04:30:56;15.13;;;7.00;;
19883;SDS011;10104;50.732;10.174;2023-04-25T04:33:18;15.03;;;7.33;;
19883;SDS011;10104;50.732;10.174;2023-04-25T04:35:41;8.83;;;5.90;;
19883;SDS011;10104;50.732;10.174;2023-04-25T04:38:03;11.83;;;6.43;;
19883;SDS011;10104;50.732;10.174;2023-04-25T04:40:24;9.10;;;5.93;;
19883;SDS011;10104;50.732;10.174;2023-04-25T04:42:46;9.87;;;6.90;;
19883;SDS011;10104;50.732;10.174;2023-04-25T04:45:09;14.90;;;7.33;;
19883;SDS011;10104;50.732;10.174;2023-04-25T04:47:31;10.03;;;6.57;;
19883;SDS011;10104;50.732;10.174;2023-04-25T04:49:53;15.20;;;9.03;;
19883;SDS011;10104;50.732;10.174;2023-04-25T04:52:15;20.17;;;12.97;;
19883;SDS011;10104;50.732;10.174;2023-04-25T04:54:36;13.63;;;9.30;;
19883;SDS011;10104;50.732;10.174;2023-04-25T04:56:58;12.37;;;7.07;;
19883;SDS011;10104;50.732;10.174;2023-04-25T04:59:19;9.90;;;5.40;;
19883;SDS011;10104;50.732;10.174;2023-04-25T05:01:41;10.17;;;5.50;;
19883;SDS011;10104;50.732;10.174;2023-04-25T05:04:02;9.03;;;5.27;;
19883;SDS011;10104;50.732;10.174;2023-04-25T05:06:25;8.67;;;5.67;;
19883;SDS011;10104;50.732;10.174;2023-04-25T05:08:47;7.97;;;4.53;;
19883;SDS011;10104;50.732;10.174;2023-04-25T05:11:10;11.47;;;5.33;;
19883;SDS011;10104;50.732;10.174;2023-04-25T05:13:32;7.90;;;5.10;;
19883;SDS011;10104;50.732;10.174;2023-04-25T05:15:53;8.40;;;5.00;;
19883;SDS011;10104;50.732;10.174;2023-04-25T05:18:15;11.53;;;5.37;;
19883;SDS011;10104;50.732;10.174;2023-04-25T05:20:36;9.57;;;5.10;;
19883;SDS011;10104;50.732;10.174;2023-04-25T05:22:58;5.90;;;5.00;;
19883;SDS011;10104;50.732;10.174;2023-04-25T05:25:19;11.27;;;4.67;;
19883;SDS011;10104;50.732;10.174;2023-04-25T05:27:41;12.60;;;5.13;;
19883;SDS011;10104;50.732;10.174;2023-04-25T05:30:02;11.53;;;5.17;;
19883;SDS011;10104;50.732;10.174;2023-04-25T05:32:24;10.67;;;5.30;;
19883;SDS011;10104;50.732;10.174;2023-04-25T05:34:46;9.37;;;5.23;;
19883;SDS011;10104;50.732;10.174;2023-04-25T05:37:08;11.57;;;5.77;;
19883;SDS011;10104;50.732;10.174;2023-04-25T05:39:29;11.43;;;5.43;;
19883;SDS011;10104;50.732;10.174;2023-04-25T05:41:50;11.63;;;5.50;;
19883;SDS011;10104;50.732;10.174;2023-04-25T05:44:12;9.63;;;5.30;;
19883;SDS011;10104;50.732;10.174;2023-04-25T05:46:33;10.07;;;5.50;;
19883;SDS011;10104;50.732;10.174;2023-04-25T05:48:55;9.27;;;5.47;;
19883;SDS011;10104;50.732;10.174;2023-04-25T05:51:16;8.47;;;4.73;;
19883;SDS011;10104;50.732;10.174;2023-04-25T05:53:39;11.27;;;5.10;;
19883;SDS011;10104;50.732;10.174;2023-04-25T05:56:01;15.03;;;5.10;;
19883;SDS011;10104;50.732;10.174;2023-04-25T05:58:23;9.60;;;4.50;;
19883;SDS011;10104;50.732;10.174;2023-04-25T06:00:44;9.17;;;4.20;;
19883;SDS011;10104;50.732;10.174;2023-04-25T06:03:07;10.07;;;5.33;;
19883;SDS011;10104;50.732;10.174;2023-04-25T06:05:31;12.17;;;5.20;;
19883;SDS011;10104;50.732;10.174;2023-04-25T06:07:52;13.67;;;4.93;;
19883;SDS011;10104;50.732;10.174;2023-04-25T06:10:14;8.23;;;5.20;;
19883;SDS011;10104;50.732;10.174;2023-04-25T06:12:36;11.37;;;5.47;;
19883;SDS011;10104;50.732;10.174;2023-04-25T06:14:57;10.33;;;5.10;;
19883;SDS011;10104;50.732;10.174;2023-04-25T06:17:19;7.70;;;4.77;;
19883;SDS011;10104;50.732;10.174;2023-04-25T06:19:40;12.93;;;4.73;;
19883;SDS011;10104;50.732;10.174;2023-04-25T06:22:02;10.70;;;4.80;;
19883;SDS011;10104;50.732;10.174;2023-04-25T06:24:23;12.13;;;5.40;;
19883;SDS011;10104;50.732;10.174;2023-04-25T06:26:45;10.77;;;4.93;;
19883;SDS011;10104;50.732;10.174;2023-04-25T06:29:06;8.40;;;4.80;;
19883;SDS011;10104;50.732;10.174;2023-04-25T06:31:28;12.67;;;5.07;;
19883;SDS011;10104;50.732;10.174;2023-04-25T06:33:54;9.67;;;5.00;;
19883;SDS011;10104;50.732;10.174;2023-04-25T06:36:15;9.37;;;4.60;;
19883;SDS011;10104;50.732;10.174;2023-04-25T06:38:37;7.40;;;4.70;;
19883;SDS011;10104;50.732;10.174;2023-04-25T06:40:58;9.87;;;5.43;;
19883;SDS011;10104;50.732;10.174;2023-04-25T06:43:20;8.43;;;4.50;;
19883;SDS011;10104;50.732;10.174;2023-04-25T06:45:41;7.27;;;4.30;;
19883;SDS011;10104;50.732;10.174;2023-04-25T06:48:04;9.00;;;4.13;;
19883;SDS011;10104;50.732;10.174;2023-04-25T06:50:26;8.00;;;4.23;;
19883;SDS011;10104;50.732;10.174;2023-04-25T06:52:48;6.43;;;4.10;;
19883;SDS011;10104;50.732;10.174;2023-04-25T06:55:09;6.67;;;4.17;;
19883;SDS011;10104;50.732;10.174;2023-04-25T06:57:31;8.43;;;4.43;;
19883;SDS011;10104;50.732;10.174;2023-04-25T06:59:52;10.20;;;4.70;;
19883;SDS011;10104;50.732;10.174;2023-04-25T07:02:14;7.33;;;4.80;;
19883;SDS011;10104;50.732;10.174;2023-04-25T07:04:35;10.27;;;4.30;;
19883;SDS011;10104;50.732;10.174;2023-04-25T07:06:57;6.93;;;4.50;;
19883;SDS011;10104;50.732;10.174;2023-04-25T07:09:19;10.80;;;4.23;;
19883;SDS011;10104;50.732;10.174;2023-04-25T07:11:40;8.33;;;4.87;;
19883;SDS011;10104;50.732;10.174;2023-04-25T07:14:02;7.20;;;4.60;;
19883;SDS011;10104;50.732;10.174;2023-04-25T07:16:24;9.87;;;4.97;;
19883;SDS011;10104;50.732;10.174;2023-04-25T07:18:45;10.00;;;5.30;;
19883;SDS011;10104;50.732;10.174;2023-04-25T07:21:07;7.70;;;5.07;;
19883;SDS011;10104;50.732;10.174;2023-04-25T07:23:28;7.97;;;5.87;;
19883;SDS011;10104;50.732;10.174;2023-04-25T07:25:50;11.70;;;5.80;;
19883;SDS011;10104;50.732;10.174;2023-04-25T07:28:11;7.83;;;5.03;;
19883;SDS011;10104;50.732;10.174;2023-04-25T07:30:33;9.00;;;5.33;;
19883;SDS011;10104;50.732;10.174;2023-04-25T07:32:56;8.60;;;5.03;;
19883;SDS011;10104;50.732;10.174;2023-04-25T07:35:17;8.63;;;5.43;;
19883;SDS011;10104;50.732;10.174;2023-04-25T07:37:38;7.13;;;4.90;;
19883;SDS011;10104;50.732;10.174;2023-04-25T07:40:01;8.07;;;5.43;;
19883;SDS011;10104;50.732;10.174;2023-04-25T07:42:25;9.93;;;5.23;;
19883;SDS011;10104;50.732;10.174;2023-04-25T07:44:46;8.27;;;4.87;;
19883;SDS011;10104;50.732;10.174;2023-04-25T07:47:09;9.97;;;5.20;;
19883;SDS011;10104;50.732;10.174;2023-04-25T07:49:30;10.73;;;5.67;;
19883;SDS011;10104;50.732;10.174;2023-04-25T07:51:52;10.13;;;5.67;;
19883;SDS011;10104;50.732;10.174;2023-04-25T07:54:14;9.00;;;5.10;;
19883;SDS011;10104;50.732;10.174;2023-04-25T07:56:36;7.43;;;5.17;;
19883;SDS011;10104;50.732;10.174;2023-04-25T07:59:11;7.27;;;4.50;;
19883;SDS011;10104;50.732;10.174;2023-04-25T08:01:33;10.20;;;4.90;;
19883;SDS011;10104;50.732;10.174;2023-04-25T08:03:55;8.53;;;5.17;;
19883;SDS011;10104;50.732;10.174;2023-04-25T08:06:17;6.33;;;4.63;;
19883;SDS011;10104;50.732;10.174;2023-04-25T08:08:39;9.80;;;5.00;;
19883;SDS011;10104;50.732;10.174;2023-04-25T08:11:01;7.77;;;4.40;;
19883;SDS011;10104;50.732;10.174;2023-04-25T08:13:22;10.33;;;5.60;;
19883;SDS011;10104;50.732;10.174;2023-04-25T08:15:43;5.73;;;4.53;;
19883;SDS011;10104;50.732;10.174;2023-04-25T08:18:05;8.63;;;4.27;;
19883;SDS011;10104;50.732;10.174;2023-04-25T08:20:27;6.97;;;4.03;;
19883;SDS011;10104;50.732;10.174;2023-04-25T08:22:48;5.83;;;4.17;;
19883;SDS011;10104;50.732;10.174;2023-04-25T08:25:10;7.23;;;4.57;;
19883;SDS011;10104;50.732;10.174;2023-04-25T08:27:31;5.53;;;4.33;;
19883;SDS011;10104;50.732;10.174;2023-04-25T08:29:53;6.20;;;3.77;;
19883;SDS011;10104;50.732;10.174;2023-04-25T08:32:14;6.27;;;4.20;;
19883;SDS011;10104;50.732;10.174;2023-04-25T08:34:36;5.13;;;4.27;;
19883;SDS011;10104;50.732;10.174;2023-04-25T08:36:59;5.93;;;4.10;;
19883;SDS011;10104;50.732;10.174;2023-04-25T08:39:20;7.20;;;4.40;;
19883;SDS011;10104;50.732;10.174;2023-04-25T08:41:42;5.50;;;3.93;;
19883;SDS011;10104;50.732;10.174;2023-04-25T08:44:05;6.83;;;4.13;;
19883;SDS011;10104;50.732;10.174;2023-04-25T08:46:31;5.27;;;4.10;;
19883;SDS011;10104;50.732;10.174;2023-04-25T08:48:53;5.57;;;4.17;;
19883;SDS011;10104;50.732;10.174;2023-04-25T08:51:23;7.97;;;4.23;;
19883;SDS011;10104;50.732;10.174;2023-04-25T08:53:50;5.87;;;4.00;;
19883;SDS011;10104;50.732;10.174;2023-04-25T08:56:18;5.67;;;3.50;;
19883;SDS011;10104;50.732;10.174;2023-04-25T08:58:41;5.03;;;3.50;;
19883;SDS011;10104;50.732;10.174;2023-04-25T09:01:03;5.60;;;3.90;;
19883;SDS011;10104;50.732;10.174;2023-04-25T09:03:25;5.23;;;4.23;;
19883;SDS011;10104;50.732;10.174;2023-04-25T09:05:47;6.07;;;3.83;;
19883;SDS011;10104;50.732;10.174;2023-04-25T09:08:08;5.33;;;4.03;;
19883;SDS011;10104;50.732;10.174;2023-04-25T09:10:30;5.67;;;3.50;;
19883;SDS011;10104;50.732;10.174;2023-04-25T09:13:02;6.90;;;4.27;;
19883;SDS011;10104;50.732;10.174;2023-04-25T09:15:28;12.60;;;5.20;;
19883;SDS011;10104;50.732;10.174;2023-04-25T09:17:55;10.20;;;5.30;;
19883;SDS011;10104;50.732;10.174;2023-04-25T09:20:20;6.00;;;3.87;;
19883;SDS011;10104;50.732;10.174;2023-04-25T09:22:42;6.90;;;4.67;;
19883;SDS011;10104;50.732;10.174;2023-04-25T09:25:10;5.80;;;4.70;;
19883;SDS011;10104;50.732;10.174;2023-04-25T09:27:33;6.97;;;5.17;;
19883;SDS011;10104;50.732;10.174;2023-04-25T09:29:57;8.13;;;4.83;;
19883;SDS011;10104;50.732;10.174;2023-04-25T09:32:23;8.07;;;4.10;;
19883;SDS011;10104;50.732;10.174;2023-04-25T09:34:50;7.57;;;3.97;;
19883;SDS011;10104;50.732;10.174;2023-04-25T09:37:13;5.77;;;3.70;;
19883;SDS011;10104;50.732;10.174;2023-04-25T09:39:41;8.70;;;4.20;;
19883;SDS011;10104;50.732;10.174;2023-04-25T09:42:07;8.67;;;3.37;;
19883;SDS011;10104;50.732;10.174;2023-04-25T09:44:30;6.20;;;3.50;;
19883;SDS011;10104;50.732;10.174;2023-04-25T09:46:52;5.53;;;2.80;;
19883;SDS011;10104;50.732;10.174;2023-04-25T09:49:14;5.53;;;2.63;;
19883;SDS011;10104;50.732;10.174;2023-04-25T09:51:36;6.90;;;3.20;;
19883;SDS011;10104;50.732;10.174;2023-04-25T09:53:57;7.77;;;3.10;;
19883;SDS011;10104;50.732;10.174;2023-04-25T09:56:19;6.22;;;2.90;;
19883;SDS011;10104;50.732;10.174;2023-04-25T09:58:41;7.32;;;2.45;;
19883;SDS011;10104;50.732;10.174;2023-04-25T10:01:03;5.40;;;3.08;;
19883;SDS011;10104;50.732;10.174;2023-04-25T10:03:27;7.00;;;2.95;;
19883;SDS011;10104;50.732;10.174;2023-04-25T10:05:52;7.65;;;3.08;;
19883;SDS011;10104;50.732;10.174;2023-04-25T10:08:15;8.00;;;3.00;;
19883;SDS011;10104;50.732;10.174;2023-04-25T10:10:37;5.40;;;2.60;;
19883;SDS011;10104;50.732;10.174;2023-04-25T10:13:04;5.23;;;2.73;;
19883;SDS011;10104;50.732;10.174;2023-04-25T10:15:27;9.43;;;3.13;;
19883;SDS011;10104;50.732;10.174;2023-04-25T10:17:49;8.70;;;3.00;;
19883;SDS011;10104;50.732;10.174;2023-04-25T10:20:12;7.65;;;2.95;;
19883;SDS011;10104;50.732;10.174;2023-04-25T10:22:35;4.90;;;2.78;;
19883;SDS011;10104;50.732;10.174;2023-04-25T10:24:58;6.63;;;2.77;;
19883;SDS011;10104;50.732;10.174;2023-04-25T10:27:21;8.67;;;4.90;;
19883;SDS011;10104;50.732;10.174;2023-04-25T10:29:43;12.13;;;3.50;;
19883;SDS011;10104;50.732;10.174;2023-04-25T10:32:05;11.47;;;3.97;;
19883;SDS011;10104;50.732;10.174;2023-04-25T10:34:42;9.33;;;3.23;;
19883;SDS011;10104;50.732;10.174;2023-04-25T10:37:08;12.77;;;4.93;;
19883;SDS011;10104;50.732;10.174;2023-04-25T10:39:31;7.33;;;2.90;;
19883;SDS011;10104;50.732;10.174;2023-04-25T10:41:55;8.60;;;3.10;;
19883;SDS011;10104;50.732;10.174;2023-04-25T10:44:18;8.77;;;3.23;;
19883;SDS011;10104;50.732;10.174;2023-04-25T10:46:40;10.73;;;3.03;;
19883;SDS011;10104;50.732;10.174;2023-04-25T10:49:02;6.60;;;2.70;;
19883;SDS011;10104;50.732;10.174;2023-04-25T10:51:25;8.73;;;3.50;;
19883;SDS011;10104;50.732;10.174;2023-04-25T10:54:13;7.97;;;3.00;;
19883;SDS011;10104;50.732;10.174;2023-04-25T10:56:40;8.60;;;3.20;;
19883;SDS011;10104;50.732;10.174;2023-04-25T10:59:09;9.73;;;3.27;;
19883;SDS011;10104;50.732;10.174;2023-04-25T11:01:36;10.63;;;3.57;;
19883;SDS011;10104;50.732;10.174;2023-04-25T11:03:59;8.80;;;2.97;;
19883;SDS011;10104;50.732;10.174;2023-04-25T11:09:08;8.03;;;2.97;;
19883;SDS011;10104;50.732;10.174;2023-04-25T11:11:33;8.33;;;3.00;;
19883;SDS011;10104;50.732;10.174;2023-04-25T11:13:57;7.67;;;3.10;;
19883;SDS011;10104;50.732;10.174;2023-04-25T11:16:19;6.53;;;2.73;;
19883;SDS011;10104;50.732;10.174;2023-04-25T11:18:48;8.80;;;3.63;;
19883;SDS011;10104;50.732;10.174;2023-04-25T11:21:10;6.50;;;2.80;;
19883;SDS011;10104;50.732;10.174;2023-04-25T11:23:32;7.40;;;3.27;;
19883;SDS011;10104;50.732;10.174;2023-04-25T11:25:54;6.57;;;2.60;;
19883;SDS011;10104;50.732;10.174;2023-04-25T11:28:20;7.27;;;3.07;;
19883;SDS011;10104;50.732;10.174;2023-04-25T11:30:49;8.23;;;3.10;;
19883;SDS011;10104;50.732;10.174;2023-04-25T11:33:13;8.27;;;2.90;;
19883;SDS011;10104;50.732;10.174;2023-04-25T11:35:35;9.93;;;2.60;;
19883;SDS011;10104;50.732;10.174;2023-04-25T11:37:56;8.73;;;2.20;;
19883;SDS011;10104;50.732;10.174;2023-04-25T11:40:18;8.73;;;2.80;;
19883;SDS011;10104;50.732;10.174;2023-04-25T11:42:46;9.82;;;2.90;;
19883;SDS011;10104;50.732;10.174;2023-04-25T11:45:08;5.97;;;2.50;;
19883;SDS011;10104;50.732;10.174;2023-04-25T11:47:31;9.93;;;2.72;;
19883;SDS011;10104;50.732;10.174;2023-04-25T11:49:53;7.95;;;2.95;;
19883;SDS011;10104;50.732;10.174;2023-04-25T11:52:15;10.52;;;2.60;;
19883;SDS011;10104;50.732;10.174;2023-04-25T11:54:37;6.50;;;2.53;;
19883;SDS011;10104;50.732;10.174;2023-04-25T11:56:59;7.05;;;2.97;;
19883;SDS011;10104;50.732;10.174;2023-04-25T11:59:23;8.98;;;2.88;;
19883;SDS011;10104;50.732;10.174;2023-04-25T12:01:49;7.65;;;2.47;;
19883;SDS011;10104;50.732;10.174;2023-04-25T12:06:33;8.68;;;2.83;;
19883;SDS011;10104;50.732;10.174;2023-04-25T12:09:04;10.52;;;2.97;;
19883;SDS011;10104;50.732;10.174;2023-04-25T12:11:26;6.97;;;2.45;;
19883;SDS011;10104;50.732;10.174;2023-04-25T12:13:51;10.38;;;2.70;;
19883;SDS011;10104;50.732;10.174;2023-04-25T12:16:14;7.28;;;2.35;;
19883;SDS011;10104;50.732;10.174;2023-04-25T12:18:36;10.50;;;2.80;;
19883;SDS011;10104;50.732;10.174;2023-04-25T12:20:57;8.98;;;2.90;;
19883;SDS011;10104;50.732;10.174;2023-04-25T12:23:28;6.80;;;2.53;;
19883;SDS011;10104;50.732;10.174;2023-04-25T12:25:50;6.80;;;2.88;;
19883;SDS011;10104;50.732;10.174;2023-04-25T12:28:15;8.60;;;3.03;;
19883;SDS011;10104;50.732;10.174;2023-04-25T12:33:25;9.25;;;3.10;;
19883;SDS011;10104;50.732;10.174;2023-04-25T12:35:48;9.15;;;3.00;;
19883;SDS011;10104;50.732;10.174;2023-04-25T12:38:09;8.07;;;2.40;;
19883;SDS011;10104;50.732;10.174;2023-04-25T12:40:31;7.13;;;2.75;;
19883;SDS011;10104;50.732;10.174;2023-04-25T12:42:52;10.55;;;3.05;;
19883;SDS011;10104;50.732;10.174;2023-04-25T12:45:14;6.75;;;2.60;;
19883;SDS011;10104;50.732;10.174;2023-04-25T12:47:35;6.28;;;2.50;;
19883;SDS011;10104;50.732;10.174;2023-04-25T12:49:57;7.15;;;2.50;;
19883;SDS011;10104;50.732;10.174;2023-04-25T12:52:18;9.02;;;3.63;;
19883;SDS011;10104;50.732;10.174;2023-04-25T12:54:40;6.72;;;2.30;;
19883;SDS011;10104;50.732;10.174;2023-04-25T12:57:01;5.68;;;2.15;;
19883;SDS011;10104;50.732;10.174;2023-04-25T12:59:24;16.48;;;5.45;;
19883;SDS011;10104;50.732;10.174;2023-04-25T13:01:45;7.18;;;2.20;;
19883;SDS011;10104;50.732;10.174;2023-04-25T13:04:07;4.47;;;2.20;;
19883;SDS011;10104;50.732;10.174;2023-04-25T13:06:28;5.28;;;2.10;;
19883;SDS011;10104;50.732;10.174;2023-04-25T13:08:53;6.10;;;2.20;;
19883;SDS011;10104;50.732;10.174;2023-04-25T13:11:15;8.35;;;2.67;;
19883;SDS011;10104;50.732;10.174;2023-04-25T13:13:37;10.30;;;2.70;;
19883;SDS011;10104;50.732;10.174;2023-04-25T13:15:58;7.20;;;2.88;;
19883;SDS011;10104;50.732;10.174;2023-04-25T13:18:20;4.97;;;2.53;;
19883;SDS011;10104;50.732;10.174;2023-04-25T13:20:42;6.45;;;2.55;;
19883;SDS011;10104;50.732;10.174;2023-04-25T13:23:03;5.15;;;2.30;;
19883;SDS011;10104;50.732;10.174;2023-04-25T13:25:25;7.43;;;2.55;;
19883;SDS011;10104;50.732;10.174;2023-04-25T13:27:47;9.02;;;2.90;;
19883;SDS011;10104;50.732;10.174;2023-04-25T13:30:08;7.30;;;2.33;;
19883;SDS011;10104;50.732;10.174;2023-04-25T13:32:30;7.22;;;2.22;;
19883;SDS011;10104;50.732;10.174;2023-04-25T13:34:52;6.15;;;2.30;;
19883;SDS011;10104;50.732;10.174;2023-04-25T13:37:14;6.32;;;2.28;;
19883;SDS011;10104;50.732;10.174;2023-04-25T13:39:36;7.55;;;2.60;;
19883;SDS011;10104;50.732;10.174;2023-04-25T13:41:58;6.50;;;2.60;;
19883;SDS011;10104;50.732;10.174;2023-04-25T13:44:19;5.45;;;2.33;;
19883;SDS011;10104;50.732;10.174;2023-04-25T13:46:41;7.25;;;2.22;;
19883;SDS011;10104;50.732;10.174;2023-04-25T13:49:07;4.32;;;2.08;;
19883;SDS011;10104;50.732;10.174;2023-04-25T13:51:33;7.60;;;2.03;;
19883;SDS011;10104;50.732;10.174;2023-04-25T13:53:56;8.55;;;2.47;;
19883;SDS011;10104;50.732;10.174;2023-04-25T13:56:18;4.97;;;2.00;;
19883;SDS011;10104;50.732;10.174;2023-04-25T13:58:40;6.93;;;2.10;;
19883;SDS011;10104;50.732;10.174;2023-04-25T14:01:02;6.70;;;2.00;;
19883;SDS011;10104;50.732;10.174;2023-04-25T14:03:24;7.45;;;2.17;;
19883;SDS011;10104;50.732;10.174;2023-04-25T14:05:47;8.60;;;2.55;;
19883;SDS011;10104;50.732;10.174;2023-04-25T14:08:09;7.23;;;2.33;;
19883;SDS011;10104;50.732;10.174;2023-04-25T14:10:31;7.70;;;2.03;;